FDX1402 KMEM-KEWR
Flight info
| Callsign | FDX1402 |
|---|---|
| Flight time | 1h 42m |
| Altitude | 35000 |
| Route | GOETZ7 DIYAB HITMN Q34 GVE PHLBO4 |
| Aircraft | B763/H-VGDW/C |
Departure
| Time | 2026-05-07 18:40 |
|---|---|
| Airport | Memphis International Airport (KMEM) |
Arrival
| Time | 2026-05-07 20:22 |
|---|---|
| Airport | Newark Liberty International Airport (KEWR) |
| Time | Latitude | Longitude | Altitude | Speed | Heading |
|---|---|---|---|---|---|
| 2026-05-07 18:13 | 35.06288 | -89.98090 | 347 ft | 0 kts | 182° |
| 2026-05-07 18:25 | 35.06290 | -89.98090 | 347 ft | 1 kts | 182° |
| 2026-05-07 18:26 | 35.06305 | -89.98089 | 347 ft | 2 kts | 182° |
| 2026-05-07 18:26 | 35.06319 | -89.98086 | 347 ft | 2 kts | 204° |
| 2026-05-07 18:26 | 35.06332 | -89.98077 | 347 ft | 2 kts | 219° |
| 2026-05-07 18:26 | 35.06343 | -89.98064 | 347 ft | 2 kts | 236° |
| 2026-05-07 18:27 | 35.06350 | -89.98048 | 347 ft | 2 kts | 252° |
| 2026-05-07 18:27 | 35.06352 | -89.98031 | 347 ft | 1 kts | 268° |
| 2026-05-07 18:27 | 35.06352 | -89.98023 | 347 ft | 1 kts | 272° |
| 2026-05-07 18:29 | 35.06352 | -89.98032 | 347 ft | 3 kts | 272° |
| 2026-05-07 18:30 | 35.06354 | -89.98081 | 347 ft | 8 kts | 271° |
| 2026-05-07 18:30 | 35.06356 | -89.98168 | 347 ft | 12 kts | 271° |
| 2026-05-07 18:30 | 35.06358 | -89.98283 | 347 ft | 14 kts | 272° |
| 2026-05-07 18:30 | 35.06362 | -89.98415 | 347 ft | 14 kts | 272° |
| 2026-05-07 18:31 | 35.06343 | -89.98508 | 347 ft | 10 kts | 219° |
| 2026-05-07 18:31 | 35.06271 | -89.98526 | 347 ft | 11 kts | 183° |
| 2026-05-07 18:31 | 35.06181 | -89.98529 | 347 ft | 14 kts | 181° |
| 2026-05-07 18:31 | 35.06070 | -89.98527 | 347 ft | 16 kts | 174° |
| 2026-05-07 18:32 | 35.05952 | -89.98513 | 347 ft | 16 kts | 175° |
| 2026-05-07 18:32 | 35.05834 | -89.98505 | 347 ft | 16 kts | 181° |
| 2026-05-07 18:32 | 35.05709 | -89.98506 | 347 ft | 18 kts | 180° |
| 2026-05-07 18:32 | 35.05570 | -89.98508 | 347 ft | 20 kts | 181° |
| 2026-05-07 18:33 | 35.05424 | -89.98510 | 347 ft | 20 kts | 180° |
| 2026-05-07 18:33 | 35.05279 | -89.98511 | 347 ft | 20 kts | 180° |
| 2026-05-07 18:33 | 35.05134 | -89.98513 | 347 ft | 20 kts | 180° |
| 2026-05-07 18:33 | 35.04992 | -89.98513 | 347 ft | 20 kts | 179° |
| 2026-05-07 18:34 | 35.04848 | -89.98511 | 347 ft | 20 kts | 179° |
| 2026-05-07 18:34 | 35.04709 | -89.98508 | 347 ft | 20 kts | 179° |
| 2026-05-07 18:34 | 35.04570 | -89.98505 | 347 ft | 19 kts | 179° |
| 2026-05-07 18:34 | 35.04431 | -89.98503 | 347 ft | 20 kts | 179° |
| 2026-05-07 18:35 | 35.04279 | -89.98498 | 347 ft | 23 kts | 179° |
| 2026-05-07 18:35 | 35.04117 | -89.98495 | 347 ft | 23 kts | 179° |
| 2026-05-07 18:35 | 35.03954 | -89.98492 | 347 ft | 23 kts | 179° |
| 2026-05-07 18:35 | 35.03795 | -89.98489 | 347 ft | 22 kts | 179° |
| 2026-05-07 18:36 | 35.03636 | -89.98483 | 347 ft | 22 kts | 177° |
| 2026-05-07 18:36 | 35.03479 | -89.98479 | 347 ft | 22 kts | 179° |
| 2026-05-07 18:36 | 35.03326 | -89.98476 | 347 ft | 22 kts | 179° |
| 2026-05-07 18:36 | 35.03173 | -89.98472 | 347 ft | 21 kts | 179° |
| 2026-05-07 18:37 | 35.03022 | -89.98469 | 347 ft | 21 kts | 179° |
| 2026-05-07 18:37 | 35.02873 | -89.98467 | 347 ft | 21 kts | 179° |
| 2026-05-07 18:37 | 35.02723 | -89.98463 | 347 ft | 21 kts | 178° |
| 2026-05-07 18:37 | 35.02576 | -89.98458 | 347 ft | 21 kts | 178° |
| 2026-05-07 18:38 | 35.02462 | -89.98455 | 347 ft | 13 kts | 179° |
| 2026-05-07 18:38 | 35.02409 | -89.98516 | 347 ft | 11 kts | 259° |
| 2026-05-07 18:38 | 35.02409 | -89.98608 | 347 ft | 10 kts | 272° |
| 2026-05-07 18:38 | 35.02425 | -89.98683 | 347 ft | 7 kts | 326° |
| 2026-05-07 18:39 | 35.02475 | -89.98692 | 347 ft | 3 kts | 0° |
| 2026-05-07 18:39 | 35.02500 | -89.98692 | 347 ft | 15 kts | 0° |
| 2026-05-07 18:39 | 35.02829 | -89.98700 | 347 ft | 79 kts | 360° |
| 2026-05-07 18:39 | 35.03587 | -89.98714 | 347 ft | 136 kts | 359° |
| 2026-05-07 18:40 | 35.04682 | -89.98756 | 569 ft | 168 kts | 356° |
| 2026-05-07 18:40 | 35.05854 | -89.98810 | 1279 ft | 173 kts | 357° |
| 2026-05-07 18:40 | 35.07049 | -89.98626 | 1910 ft | 180 kts | 19° |
| 2026-05-07 18:40 | 35.08204 | -89.97848 | 2322 ft | 199 kts | 33° |
| 2026-05-07 18:41 | 35.09388 | -89.96816 | 2657 ft | 226 kts | 34° |
| 2026-05-07 18:41 | 35.10735 | -89.95645 | 3084 ft | 250 kts | 34° |
| 2026-05-07 18:41 | 35.12172 | -89.94449 | 4028 ft | 254 kts | 32° |
| 2026-05-07 18:41 | 35.13535 | -89.92961 | 4707 ft | 272 kts | 55° |
| 2026-05-07 18:42 | 35.14182 | -89.90795 | 5604 ft | 283 kts | 83° |
| 2026-05-07 18:42 | 35.14160 | -89.88366 | 6399 ft | 294 kts | 90° |
| 2026-05-07 18:42 | 35.14088 | -89.85847 | 7206 ft | 303 kts | 90° |
| 2026-05-07 18:42 | 35.14105 | -89.83280 | 7961 ft | 310 kts | 79° |
| 2026-05-07 18:43 | 35.14519 | -89.80650 | 8696 ft | 320 kts | 75° |
| 2026-05-07 18:43 | 35.14957 | -89.77990 | 9460 ft | 328 kts | 75° |
| 2026-05-07 18:43 | 35.15420 | -89.75200 | 10204 ft | 338 kts | 75° |
| 2026-05-07 18:43 | 35.15895 | -89.72357 | 10843 ft | 352 kts | 75° |
| 2026-05-07 18:44 | 35.16399 | -89.69357 | 11321 ft | 372 kts | 75° |
| 2026-05-07 18:44 | 35.16927 | -89.66207 | 11823 ft | 391 kts | 75° |
| 2026-05-07 18:44 | 35.17471 | -89.62935 | 12621 ft | 399 kts | 75° |
| 2026-05-07 18:44 | 35.18028 | -89.59606 | 13415 ft | 407 kts | 76° |
| 2026-05-07 18:45 | 35.18593 | -89.56200 | 14308 ft | 412 kts | 76° |
| 2026-05-07 18:45 | 35.19169 | -89.52754 | 15098 ft | 418 kts | 75° |
| 2026-05-07 18:45 | 35.19716 | -89.49264 | 15785 ft | 428 kts | 80° |
| 2026-05-07 18:45 | 35.19980 | -89.45604 | 16564 ft | 433 kts | 84° |
| 2026-05-07 18:46 | 35.20240 | -89.41944 | 17199 ft | 442 kts | 84° |
| 2026-05-07 18:46 | 35.20490 | -89.38221 | 18014 ft | 444 kts | 83° |
| 2026-05-07 18:46 | 35.20748 | -89.34428 | 18608 ft | 453 kts | 85° |
| 2026-05-07 18:46 | 35.21008 | -89.30553 | 19216 ft | 460 kts | 84° |
| 2026-05-07 18:47 | 35.21266 | -89.26651 | 19862 ft | 465 kts | 85° |
| 2026-05-07 18:47 | 35.21609 | -89.22709 | 20423 ft | 470 kts | 77° |
| 2026-05-07 18:47 | 35.22471 | -89.18857 | 21027 ft | 471 kts | 69° |
| 2026-05-07 18:47 | 35.23465 | -89.14980 | 21583 ft | 478 kts | 70° |
| 2026-05-07 18:48 | 35.24527 | -89.11136 | 22083 ft | 482 kts | 63° |
| 2026-05-07 18:48 | 35.25929 | -89.07388 | 22721 ft | 482 kts | 60° |
| 2026-05-07 18:48 | 35.27339 | -89.03635 | 23137 ft | 491 kts | 60° |
| 2026-05-07 18:48 | 35.28780 | -88.99837 | 23658 ft | 496 kts | 60° |
| 2026-05-07 18:49 | 35.30237 | -88.95992 | 24135 ft | 503 kts | 60° |
| 2026-05-07 18:49 | 35.31708 | -88.92113 | 24691 ft | 507 kts | 60° |
| 2026-05-07 18:49 | 35.33198 | -88.88190 | 25079 ft | 516 kts | 60° |
| 2026-05-07 18:49 | 35.34719 | -88.84176 | 25538 ft | 522 kts | 60° |
| 2026-05-07 18:50 | 35.36242 | -88.80147 | 26029 ft | 526 kts | 60° |
| 2026-05-07 18:50 | 35.37797 | -88.76034 | 26484 ft | 532 kts | 60° |
| 2026-05-07 18:50 | 35.39356 | -88.71912 | 26886 ft | 538 kts | 60° |
| 2026-05-07 18:50 | 35.40928 | -88.67737 | 27268 ft | 545 kts | 60° |
| 2026-05-07 18:51 | 35.42518 | -88.63514 | 27762 ft | 549 kts | 60° |
| 2026-05-07 18:51 | 35.44119 | -88.59261 | 28101 ft | 556 kts | 60° |
| 2026-05-07 18:51 | 35.45724 | -88.54984 | 28525 ft | 561 kts | 60° |
| 2026-05-07 18:51 | 35.47357 | -88.50633 | 28900 ft | 566 kts | 60° |
| 2026-05-07 18:52 | 35.49014 | -88.46210 | 29301 ft | 572 kts | 60° |
| 2026-05-07 18:52 | 35.50663 | -88.41798 | 29701 ft | 576 kts | 60° |
| 2026-05-07 18:52 | 35.52338 | -88.37312 | 30250 ft | 578 kts | 59° |
| 2026-05-07 18:52 | 35.54025 | -88.32793 | 30603 ft | 584 kts | 60° |
| 2026-05-07 18:53 | 35.55693 | -88.28313 | 31140 ft | 583 kts | 60° |
| 2026-05-07 18:53 | 35.57379 | -88.23778 | 31702 ft | 583 kts | 60° |
| 2026-05-07 18:53 | 35.59067 | -88.19227 | 32281 ft | 581 kts | 60° |
| 2026-05-07 18:53 | 35.60726 | -88.14754 | 32757 ft | 581 kts | 60° |
| 2026-05-07 18:54 | 35.62344 | -88.10387 | 33195 ft | 582 kts | 60° |
| 2026-05-07 18:54 | 35.64026 | -88.05834 | 33725 ft | 580 kts | 59° |
| 2026-05-07 18:54 | 35.65684 | -88.01347 | 34249 ft | 579 kts | 60° |
| 2026-05-07 18:54 | 35.67375 | -87.96764 | 34651 ft | 580 kts | 60° |
| 2026-05-07 18:55 | 35.69025 | -87.92278 | 35081 ft | 577 kts | 60° |
| 2026-05-07 18:55 | 35.72347 | -87.83237 | 35060 ft | 576 kts | 59° |
| 2026-05-07 18:56 | 35.75612 | -87.74327 | 35060 ft | 571 kts | 59° |
| 2026-05-07 18:56 | 35.78868 | -87.65418 | 35060 ft | 575 kts | 59° |
| 2026-05-07 18:57 | 35.82134 | -87.56452 | 35061 ft | 575 kts | 59° |
| 2026-05-07 18:57 | 35.85390 | -87.47491 | 35054 ft | 574 kts | 59° |
| 2026-05-07 18:58 | 35.88629 | -87.38550 | 35060 ft | 576 kts | 59° |
| 2026-05-07 18:58 | 35.91885 | -87.29539 | 35024 ft | 575 kts | 60° |
| 2026-05-07 18:59 | 35.95119 | -87.20555 | 35030 ft | 575 kts | 60° |
| 2026-05-07 18:59 | 35.98374 | -87.11490 | 35039 ft | 575 kts | 60° |
| 2026-05-07 19:00 | 36.01602 | -87.02478 | 35047 ft | 577 kts | 60° |
| 2026-05-07 19:00 | 36.04836 | -86.93417 | 35048 ft | 575 kts | 60° |
| 2026-05-07 19:01 | 36.08043 | -86.84407 | 35049 ft | 575 kts | 60° |
| 2026-05-07 19:01 | 36.11274 | -86.75306 | 35050 ft | 578 kts | 60° |
| 2026-05-07 19:02 | 36.14437 | -86.66238 | 35053 ft | 579 kts | 62° |
| 2026-05-07 19:02 | 36.17442 | -86.56947 | 35052 ft | 579 kts | 62° |
| 2026-05-07 19:03 | 36.20438 | -86.47692 | 35055 ft | 579 kts | 62° |
| 2026-05-07 19:03 | 36.23417 | -86.38460 | 35063 ft | 579 kts | 62° |
| 2026-05-07 19:04 | 36.26439 | -86.29090 | 35029 ft | 591 kts | 64° |
| 2026-05-07 19:04 | 36.29489 | -86.19584 | 35030 ft | 602 kts | 63° |
| 2026-05-07 19:05 | 36.32574 | -86.09934 | 35030 ft | 606 kts | 63° |
| 2026-05-07 19:05 | 36.35679 | -86.00183 | 35027 ft | 602 kts | 63° |
| 2026-05-07 19:06 | 36.38759 | -85.90493 | 35029 ft | 603 kts | 63° |
| 2026-05-07 19:06 | 36.43346 | -85.75990 | 35029 ft | 604 kts | 63° |
| 2026-05-07 19:07 | 36.46396 | -85.66307 | 35033 ft | 602 kts | 63° |
| 2026-05-07 19:07 | 36.49420 | -85.56679 | 35030 ft | 603 kts | 63° |
| 2026-05-07 19:08 | 36.52452 | -85.46990 | 35025 ft | 604 kts | 63° |
| 2026-05-07 19:08 | 36.55475 | -85.37294 | 35028 ft | 603 kts | 63° |
| 2026-05-07 19:09 | 36.58498 | -85.27570 | 35005 ft | 602 kts | 64° |
| 2026-05-07 19:09 | 36.61510 | -85.17851 | 35004 ft | 604 kts | 64° |
| 2026-05-07 19:10 | 36.64520 | -85.08099 | 35015 ft | 605 kts | 64° |
| 2026-05-07 19:10 | 36.67517 | -84.98348 | 35001 ft | 605 kts | 64° |
| 2026-05-07 19:11 | 36.70505 | -84.88598 | 35018 ft | 604 kts | 64° |
| 2026-05-07 19:11 | 36.73489 | -84.78825 | 35022 ft | 604 kts | 64° |
| 2026-05-07 19:12 | 36.76452 | -84.69094 | 35021 ft | 605 kts | 65° |
| 2026-05-07 19:12 | 36.79422 | -84.59304 | 35014 ft | 606 kts | 64° |
| 2026-05-07 19:13 | 36.82393 | -84.49469 | 35012 ft | 605 kts | 64° |
| 2026-05-07 19:13 | 36.85332 | -84.39706 | 35014 ft | 605 kts | 64° |
| 2026-05-07 19:14 | 36.88284 | -84.29874 | 34984 ft | 604 kts | 65° |
| 2026-05-07 19:14 | 36.91222 | -84.20056 | 34993 ft | 604 kts | 65° |
| 2026-05-07 19:15 | 36.94169 | -84.10162 | 34995 ft | 604 kts | 65° |
| 2026-05-07 19:15 | 36.97085 | -84.00338 | 34996 ft | 605 kts | 65° |
| 2026-05-07 19:16 | 37.00012 | -83.90449 | 34989 ft | 605 kts | 65° |
| 2026-05-07 19:16 | 37.02908 | -83.80616 | 34983 ft | 602 kts | 65° |
| 2026-05-07 19:17 | 37.05791 | -83.70819 | 34983 ft | 605 kts | 65° |
| 2026-05-07 19:17 | 37.08683 | -83.60925 | 34981 ft | 603 kts | 65° |
| 2026-05-07 19:18 | 37.11528 | -83.51171 | 34985 ft | 599 kts | 65° |
| 2026-05-07 19:18 | 37.14387 | -83.41341 | 34991 ft | 601 kts | 65° |
| 2026-05-07 19:19 | 37.17254 | -83.31429 | 34967 ft | 601 kts | 66° |
| 2026-05-07 19:19 | 37.20087 | -83.21613 | 34973 ft | 600 kts | 66° |
| 2026-05-07 19:20 | 37.22912 | -83.11783 | 34973 ft | 601 kts | 66° |
| 2026-05-07 19:20 | 37.25760 | -83.01843 | 34974 ft | 600 kts | 67° |
| 2026-05-07 19:21 | 37.28576 | -82.91974 | 34974 ft | 599 kts | 67° |
| 2026-05-07 19:21 | 37.31356 | -82.82194 | 34979 ft | 599 kts | 66° |
| 2026-05-07 19:22 | 37.34171 | -82.72260 | 34975 ft | 600 kts | 67° |
| 2026-05-07 19:22 | 37.36958 | -82.62374 | 34978 ft | 598 kts | 66° |
| 2026-05-07 19:23 | 37.39711 | -82.52586 | 34981 ft | 597 kts | 66° |
| 2026-05-07 19:23 | 37.42455 | -82.42789 | 34987 ft | 598 kts | 67° |
| 2026-05-07 19:24 | 37.45215 | -82.32903 | 34968 ft | 596 kts | 68° |
| 2026-05-07 19:24 | 37.47934 | -82.23126 | 34950 ft | 596 kts | 68° |
| 2026-05-07 19:25 | 37.50674 | -82.13237 | 34952 ft | 598 kts | 67° |
| 2026-05-07 19:25 | 37.53263 | -82.03863 | 34955 ft | 595 kts | 68° |
| 2026-05-07 19:26 | 37.55966 | -81.94032 | 34957 ft | 597 kts | 68° |
| 2026-05-07 19:26 | 37.58673 | -81.84141 | 34954 ft | 595 kts | 68° |
| 2026-05-07 19:27 | 37.61366 | -81.74285 | 34955 ft | 594 kts | 67° |
| 2026-05-07 19:27 | 37.64027 | -81.64502 | 34961 ft | 595 kts | 68° |
| 2026-05-07 19:28 | 37.66695 | -81.54642 | 34956 ft | 596 kts | 68° |
| 2026-05-07 19:28 | 37.69360 | -81.44761 | 34954 ft | 594 kts | 68° |
| 2026-05-07 19:29 | 37.71987 | -81.34992 | 34958 ft | 593 kts | 69° |
| 2026-05-07 19:29 | 37.74639 | -81.25083 | 34938 ft | 593 kts | 69° |
| 2026-05-07 19:30 | 37.77202 | -81.15233 | 34946 ft | 596 kts | 74° |
| 2026-05-07 19:30 | 37.78432 | -81.05262 | 34957 ft | 596 kts | 85° |
| 2026-05-07 19:31 | 37.79197 | -80.94756 | 34940 ft | 597 kts | 86° |
| 2026-05-07 19:31 | 37.79903 | -80.84359 | 34926 ft | 597 kts | 86° |
| 2026-05-07 19:32 | 37.80587 | -80.73968 | 34923 ft | 595 kts | 86° |
| 2026-05-07 19:32 | 37.81264 | -80.63517 | 34930 ft | 597 kts | 86° |
| 2026-05-07 19:33 | 37.81929 | -80.53100 | 34930 ft | 596 kts | 87° |
| 2026-05-07 19:33 | 37.82579 | -80.42682 | 34934 ft | 598 kts | 86° |
| 2026-05-07 19:34 | 37.83227 | -80.32233 | 34912 ft | 596 kts | 88° |
| 2026-05-07 19:34 | 37.83860 | -80.21856 | 34914 ft | 596 kts | 88° |
| 2026-05-07 19:35 | 37.84488 | -80.11358 | 34906 ft | 598 kts | 87° |
| 2026-05-07 19:35 | 37.85095 | -80.01160 | 34903 ft | 597 kts | 88° |
| 2026-05-07 19:36 | 37.85707 | -79.90642 | 34907 ft | 596 kts | 87° |
| 2026-05-07 19:36 | 37.86305 | -79.80210 | 34909 ft | 597 kts | 87° |
| 2026-05-07 19:37 | 37.86826 | -79.69773 | 34910 ft | 597 kts | 90° |
| 2026-05-07 19:37 | 37.87175 | -79.59286 | 34897 ft | 597 kts | 89° |
| 2026-05-07 19:38 | 37.87526 | -79.48830 | 34899 ft | 598 kts | 89° |
| 2026-05-07 19:38 | 37.87867 | -79.38366 | 34901 ft | 595 kts | 89° |
| 2026-05-07 19:39 | 37.88673 | -79.27973 | 34888 ft | 598 kts | 83° |
| 2026-05-07 19:39 | 37.89663 | -79.19369 | 34884 ft | 599 kts | 82° |
| 2026-05-07 19:40 | 37.91048 | -79.07416 | 34886 ft | 597 kts | 83° |
| 2026-05-07 19:40 | 37.92228 | -78.97196 | 34893 ft | 598 kts | 82° |
| 2026-05-07 19:41 | 37.93397 | -78.87012 | 34892 ft | 599 kts | 83° |
| 2026-05-07 19:41 | 37.94601 | -78.76424 | 34886 ft | 597 kts | 83° |
| 2026-05-07 19:42 | 37.95770 | -78.66070 | 34897 ft | 599 kts | 83° |
| 2026-05-07 19:42 | 37.96932 | -78.55692 | 34905 ft | 599 kts | 83° |
| 2026-05-07 19:43 | 37.98093 | -78.45225 | 34909 ft | 599 kts | 83° |
| 2026-05-07 19:43 | 37.99226 | -78.34959 | 34920 ft | 599 kts | 84° |
| 2026-05-07 19:44 | 38.00384 | -78.24374 | 34897 ft | 598 kts | 83° |
| 2026-05-07 19:44 | 38.02535 | -78.14291 | 34918 ft | 600 kts | 65° |
| 2026-05-07 19:45 | 38.06184 | -78.05756 | 34923 ft | 593 kts | 53° |
| 2026-05-07 19:45 | 38.10548 | -77.96912 | 34911 ft | 591 kts | 53° |
| 2026-05-07 19:46 | 38.14946 | -77.88019 | 34905 ft | 592 kts | 52° |
| 2026-05-07 19:46 | 38.19334 | -77.79136 | 34901 ft | 592 kts | 53° |
| 2026-05-07 19:47 | 38.23685 | -77.70311 | 34899 ft | 589 kts | 53° |
| 2026-05-07 19:47 | 38.28021 | -77.61494 | 34907 ft | 591 kts | 53° |
| 2026-05-07 19:48 | 38.32152 | -77.53069 | 34909 ft | 591 kts | 53° |
| 2026-05-07 19:48 | 38.36492 | -77.44199 | 34912 ft | 590 kts | 53° |
| 2026-05-07 19:49 | 38.40843 | -77.35277 | 34920 ft | 593 kts | 53° |
| 2026-05-07 19:49 | 38.45103 | -77.26520 | 34894 ft | 590 kts | 54° |
| 2026-05-07 19:50 | 38.49474 | -77.17509 | 34894 ft | 592 kts | 54° |
| 2026-05-07 19:50 | 38.53800 | -77.08568 | 34893 ft | 592 kts | 54° |
| 2026-05-07 19:51 | 38.58041 | -76.99776 | 34901 ft | 592 kts | 54° |
| 2026-05-07 19:51 | 38.62395 | -76.90726 | 34891 ft | 591 kts | 54° |
| 2026-05-07 19:52 | 38.66725 | -76.81701 | 34890 ft | 590 kts | 54° |
| 2026-05-07 19:52 | 38.71007 | -76.72750 | 34891 ft | 591 kts | 55° |
| 2026-05-07 19:53 | 38.75833 | -76.64492 | 34906 ft | 578 kts | 38° |
| 2026-05-07 19:53 | 38.81856 | -76.57969 | 34893 ft | 567 kts | 28° |
| 2026-05-07 19:54 | 38.88071 | -76.51804 | 34892 ft | 567 kts | 28° |
| 2026-05-07 19:54 | 38.91184 | -76.48736 | 34727 ft | 571 kts | 28° |
| 2026-05-07 19:54 | 38.94395 | -76.45583 | 33954 ft | 583 kts | 28° |
| 2026-05-07 19:55 | 38.97602 | -76.42424 | 33237 ft | 584 kts | 28° |
| 2026-05-07 19:55 | 39.00826 | -76.39248 | 32641 ft | 580 kts | 29° |
| 2026-05-07 19:55 | 39.03946 | -76.36068 | 32430 ft | 575 kts | 33° |
| 2026-05-07 19:55 | 39.06913 | -76.32601 | 31710 ft | 584 kts | 36° |
| 2026-05-07 19:56 | 39.09902 | -76.29087 | 30992 ft | 589 kts | 36° |
| 2026-05-07 19:56 | 39.12787 | -76.25703 | 30432 ft | 587 kts | 36° |
| 2026-05-07 19:56 | 39.15702 | -76.22270 | 30346 ft | 567 kts | 36° |
| 2026-05-07 19:56 | 39.18547 | -76.18931 | 30209 ft | 548 kts | 35° |
| 2026-05-07 19:57 | 39.21358 | -76.15636 | 29638 ft | 540 kts | 35° |
| 2026-05-07 19:57 | 39.23966 | -76.12586 | 28986 ft | 536 kts | 35° |
| 2026-05-07 19:57 | 39.26717 | -76.09358 | 28443 ft | 529 kts | 35° |
| 2026-05-07 19:57 | 39.29423 | -76.06177 | 27930 ft | 521 kts | 35° |
| 2026-05-07 19:58 | 39.31983 | -76.03172 | 27334 ft | 516 kts | 36° |
| 2026-05-07 19:58 | 39.34649 | -76.00039 | 26731 ft | 514 kts | 36° |
| 2026-05-07 19:58 | 39.37281 | -75.96939 | 26159 ft | 511 kts | 36° |
| 2026-05-07 19:58 | 39.39879 | -75.93871 | 25559 ft | 505 kts | 36° |
| 2026-05-07 19:59 | 39.42415 | -75.90881 | 24964 ft | 499 kts | 37° |
| 2026-05-07 19:59 | 39.44801 | -75.88060 | 24513 ft | 492 kts | 37° |
| 2026-05-07 19:59 | 39.47316 | -75.85084 | 24065 ft | 488 kts | 36° |
| 2026-05-07 19:59 | 39.49830 | -75.82108 | 23583 ft | 485 kts | 37° |
| 2026-05-07 20:00 | 39.52302 | -75.79178 | 23107 ft | 482 kts | 37° |
| 2026-05-07 20:00 | 39.54179 | -75.76952 | 22720 ft | 480 kts | 37° |
| 2026-05-07 20:00 | 39.56486 | -75.74211 | 22250 ft | 476 kts | 37° |
| 2026-05-07 20:00 | 39.59019 | -75.71202 | 21733 ft | 473 kts | 37° |
| 2026-05-07 20:01 | 39.61436 | -75.68327 | 21243 ft | 469 kts | 37° |
| 2026-05-07 20:01 | 39.63848 | -75.65454 | 20743 ft | 465 kts | 37° |
| 2026-05-07 20:01 | 39.66208 | -75.62640 | 20260 ft | 462 kts | 37° |
| 2026-05-07 20:01 | 39.68578 | -75.59809 | 19768 ft | 458 kts | 38° |
| 2026-05-07 20:02 | 39.70873 | -75.57047 | 19287 ft | 454 kts | 38° |
| 2026-05-07 20:02 | 39.73188 | -75.54262 | 18803 ft | 450 kts | 38° |
| 2026-05-07 20:02 | 39.75481 | -75.51498 | 18314 ft | 446 kts | 38° |
| 2026-05-07 20:02 | 39.77748 | -75.48764 | 17831 ft | 443 kts | 38° |
| 2026-05-07 20:03 | 39.80019 | -75.46023 | 17349 ft | 439 kts | 38° |
| 2026-05-07 20:03 | 39.82210 | -75.43375 | 16878 ft | 435 kts | 38° |
| 2026-05-07 20:03 | 39.84436 | -75.40685 | 16394 ft | 431 kts | 38° |
| 2026-05-07 20:03 | 39.86618 | -75.38044 | 15919 ft | 428 kts | 38° |
| 2026-05-07 20:04 | 39.88681 | -75.35543 | 15468 ft | 424 kts | 38° |
| 2026-05-07 20:04 | 39.90770 | -75.33012 | 14985 ft | 421 kts | 39° |
| 2026-05-07 20:04 | 39.92905 | -75.30420 | 14533 ft | 416 kts | 39° |
| 2026-05-07 20:04 | 39.94999 | -75.27876 | 14094 ft | 411 kts | 39° |
| 2026-05-07 20:05 | 39.97070 | -75.25356 | 13707 ft | 405 kts | 39° |
| 2026-05-07 20:05 | 39.99108 | -75.22876 | 13338 ft | 399 kts | 39° |
| 2026-05-07 20:05 | 40.01126 | -75.20418 | 12957 ft | 393 kts | 39° |
| 2026-05-07 20:05 | 40.03114 | -75.17995 | 12550 ft | 382 kts | 39° |
| 2026-05-07 20:06 | 40.05010 | -75.15678 | 12176 ft | 372 kts | 39° |
| 2026-05-07 20:06 | 40.06878 | -75.13399 | 11801 ft | 363 kts | 38° |
| 2026-05-07 20:06 | 40.08683 | -75.11191 | 11458 ft | 353 kts | 38° |
| 2026-05-07 20:06 | 40.10467 | -75.09011 | 11142 ft | 343 kts | 38° |
| 2026-05-07 20:07 | 40.12192 | -75.06898 | 10829 ft | 335 kts | 38° |
| 2026-05-07 20:07 | 40.13878 | -75.04836 | 10539 ft | 327 kts | 38° |
| 2026-05-07 20:07 | 40.15472 | -75.02884 | 10306 ft | 322 kts | 38° |
| 2026-05-07 20:07 | 40.16902 | -75.01132 | 10085 ft | 319 kts | 38° |
| 2026-05-07 20:08 | 40.18454 | -74.99227 | 9847 ft | 316 kts | 38° |
| 2026-05-07 20:08 | 40.20052 | -74.97266 | 9593 ft | 314 kts | 38° |
| 2026-05-07 20:08 | 40.21646 | -74.95308 | 9348 ft | 312 kts | 38° |
| 2026-05-07 20:08 | 40.23152 | -74.93457 | 9111 ft | 308 kts | 39° |
| 2026-05-07 20:09 | 40.24463 | -74.91846 | 8898 ft | 307 kts | 39° |
| 2026-05-07 20:09 | 40.25899 | -74.90005 | 8664 ft | 304 kts | 43° |
| 2026-05-07 20:09 | 40.26866 | -74.88638 | 8496 ft | 303 kts | 43° |
| 2026-05-07 20:10 | 40.29865 | -74.84426 | 7980 ft | 298 kts | 43° |
| 2026-05-07 20:10 | 40.31277 | -74.82443 | 7742 ft | 295 kts | 43° |
| 2026-05-07 20:10 | 40.32665 | -74.80492 | 7536 ft | 292 kts | 43° |
| 2026-05-07 20:10 | 40.34035 | -74.78568 | 7315 ft | 287 kts | 44° |
| 2026-05-07 20:11 | 40.35396 | -74.76654 | 7097 ft | 285 kts | 44° |
| 2026-05-07 20:11 | 40.36753 | -74.74744 | 6868 ft | 282 kts | 44° |
| 2026-05-07 20:11 | 40.38082 | -74.72872 | 6643 ft | 280 kts | 44° |
| 2026-05-07 20:11 | 40.39404 | -74.71009 | 6418 ft | 277 kts | 44° |
| 2026-05-07 20:12 | 40.40718 | -74.69159 | 6196 ft | 275 kts | 44° |
| 2026-05-07 20:12 | 40.41956 | -74.67263 | 5968 ft | 277 kts | 56° |
| 2026-05-07 20:12 | 40.42687 | -74.64938 | 5783 ft | 279 kts | 70° |
| 2026-05-07 20:12 | 40.43213 | -74.62807 | 5608 ft | 278 kts | 69° |
| 2026-05-07 20:13 | 40.43808 | -74.60410 | 5418 ft | 277 kts | 70° |
| 2026-05-07 20:13 | 40.44368 | -74.58102 | 5236 ft | 276 kts | 70° |
| 2026-05-07 20:13 | 40.44942 | -74.55715 | 5035 ft | 275 kts | 70° |
| 2026-05-07 20:13 | 40.45514 | -74.53317 | 4844 ft | 275 kts | 69° |
| 2026-05-07 20:14 | 40.46086 | -74.50912 | 4643 ft | 274 kts | 70° |
| 2026-05-07 20:14 | 40.46657 | -74.48511 | 4439 ft | 272 kts | 70° |
| 2026-05-07 20:14 | 40.47216 | -74.46149 | 4236 ft | 274 kts | 70° |
| 2026-05-07 20:14 | 40.47780 | -74.43762 | 4040 ft | 270 kts | 70° |
| 2026-05-07 20:15 | 40.48328 | -74.41436 | 3826 ft | 266 kts | 69° |
| 2026-05-07 20:15 | 40.48834 | -74.39295 | 3632 ft | 262 kts | 69° |
| 2026-05-07 20:15 | 40.49372 | -74.37008 | 3436 ft | 258 kts | 70° |
| 2026-05-07 20:15 | 40.49874 | -74.34878 | 3265 ft | 254 kts | 70° |
| 2026-05-07 20:16 | 40.50410 | -74.32597 | 3053 ft | 250 kts | 70° |
| 2026-05-07 20:16 | 40.50955 | -74.30463 | 2956 ft | 241 kts | 64° |
| 2026-05-07 20:16 | 40.51606 | -74.28750 | 2799 ft | 236 kts | 55° |
| 2026-05-07 20:16 | 40.52568 | -74.27009 | 2591 ft | 231 kts | 45° |
| 2026-05-07 20:17 | 40.53447 | -74.25897 | 2510 ft | 221 kts | 37° |
| 2026-05-07 20:17 | 40.54709 | -74.24625 | 2243 ft | 217 kts | 31° |
| 2026-05-07 20:17 | 40.55972 | -74.23606 | 2061 ft | 210 kts | 25° |
| 2026-05-07 20:17 | 40.57066 | -74.22901 | 1912 ft | 201 kts | 22° |
| 2026-05-07 20:18 | 40.58351 | -74.22151 | 1672 ft | 190 kts | 20° |
| 2026-05-07 20:18 | 40.59533 | -74.21542 | 1494 ft | 179 kts | 17° |
| 2026-05-07 20:18 | 40.60725 | -74.21011 | 1284 ft | 180 kts | 20° |
| 2026-05-07 20:18 | 40.61784 | -74.20149 | 1143 ft | 180 kts | 41° |
| 2026-05-07 20:19 | 40.62495 | -74.18793 | 1054 ft | 181 kts | 63° |
| 2026-05-07 20:19 | 40.63012 | -74.17316 | 972 ft | 176 kts | 61° |
| 2026-05-07 20:19 | 40.63596 | -74.15923 | 816 ft | 168 kts | 55° |
| 2026-05-07 20:19 | 40.64183 | -74.14681 | 758 ft | 154 kts | 53° |
| 2026-05-07 20:20 | 40.64767 | -74.13552 | 606 ft | 147 kts | 50° |
| 2026-05-07 20:20 | 40.65448 | -74.12533 | 509 ft | 144 kts | 39° |
| 2026-05-07 20:20 | 40.66237 | -74.11722 | 474 ft | 145 kts | 28° |
| 2026-05-07 20:20 | 40.67164 | -74.11217 | 461 ft | 146 kts | 9° |
| 2026-05-07 20:21 | 40.68185 | -74.11179 | 479 ft | 146 kts | 345° |
| 2026-05-07 20:21 | 40.69051 | -74.11836 | 451 ft | 149 kts | 312° |
| 2026-05-07 20:21 | 40.69557 | -74.12914 | 379 ft | 152 kts | 296° |
| 2026-05-07 20:21 | 40.69925 | -74.14210 | 289 ft | 150 kts | 288° |
| 2026-05-07 20:22 | 40.70111 | -74.15584 | 76 ft | 153 kts | 277° |
| 2026-05-07 20:22 | 40.70201 | -74.16859 | 20 ft | 108 kts | 275° |
| 2026-05-07 20:22 | 40.70243 | -74.17549 | 20 ft | 37 kts | 269° |
| 2026-05-07 20:22 | 40.70209 | -74.17751 | 20 ft | 18 kts | 247° |
| 2026-05-07 20:23 | 40.70178 | -74.17847 | 20 ft | 6 kts | 246° |
| 2026-05-07 20:23 | 40.70175 | -74.17857 | 20 ft | 0 kts | 246° |